Jamison, Iowa
Current Conditions -  °F | °C
As of 2:35 PM on Saturday 25 Oct 2014 (Local Time) from KI75 Reporting Station
Clear Clear  
Wind Chill: 73°   Ceiling: Unl
Heat Index: 73°   Visibility: 10mi
Dew Point: 39°   Wind: 8mph
Humidity: 29%   Direction: 30°NNE
Pressure: 30.07"   Gusts: NA
Location:  41.1554°N, 93.6829°W
Report Text: KI75 251935Z AUTO 03007KT 010V070 10SM CLR 23/04 A3007 RMK AO2 T02290039
Loading
Personal Weather Stations






























Interactive Weather Map
Tropical Storm Tracking
New forecast layout! Learn more

10-Day Weather Forecast

Advertisements
Track Severe Weather on mobile